createdAt,value
2022-12-11T00:00:00.028Z,64.4
2022-12-11T00:01:17.133Z,63.5
2022-12-11T00:02:34.239Z,61.4
2022-12-11T00:03:50.360Z,62.6
2022-12-11T00:05:07.466Z,65.4
2022-12-11T00:06:24.572Z,64.3
2022-12-11T00:07:41.678Z,66.5
2022-12-11T00:08:58.783Z,65.1
2022-12-11T00:10:15.889Z,67.1
2022-12-11T00:11:32.994Z,66.8
2022-12-11T00:12:49.121Z,66.2
2022-12-11T00:14:05.242Z,66.3
2022-12-11T00:15:21.369Z,70.4
2022-12-11T00:16:37.490Z,71
2022-12-11T00:17:54.595Z,68.8
2022-12-11T00:19:11.701Z,66.4
2022-12-11T00:20:28.806Z,67.5
2022-12-11T00:21:45.912Z,66.5
2022-12-11T00:23:03.017Z,68.5
2022-12-11T00:24:20.123Z,67.3
2022-12-11T00:25:37.228Z,73.4
2022-12-11T00:26:54.334Z,71.3
2022-12-11T00:28:11.439Z,77.4
2022-12-11T00:29:28.544Z,72.1
2022-12-11T00:30:45.650Z,75.8
2022-12-11T00:32:02.755Z,77.6
2022-12-11T00:33:18.877Z,75.1
2022-12-11T00:34:35.982Z,76.3
2022-12-11T00:35:53.088Z,72.2
2022-12-11T00:37:10.193Z,80.2
2022-12-11T00:38:27.299Z,78.6
2022-12-11T00:39:44.404Z,76.2
2022-12-11T00:41:01.509Z,75.9
2022-12-11T00:42:17.636Z,71.8
2022-12-11T00:43:33.758Z,76.4
2022-12-11T00:44:49.885Z,77.7
2022-12-11T00:46:06.006Z,72.1
2022-12-11T00:47:23.112Z,80
2022-12-11T00:48:40.217Z,79.5
2022-12-11T00:49:57.323Z,77.2
2022-12-11T00:51:14.428Z,86.6
2022-12-11T00:52:31.534Z,77.9
2022-12-11T00:53:48.639Z,81.6
2022-12-11T00:55:05.744Z,86
2022-12-11T00:56:22.850Z,87.2
2022-12-11T00:57:39.955Z,82.3
2022-12-11T00:58:57.061Z,85.9
2022-12-11T01:00:14.166Z,81.5
2022-12-11T01:01:31.271Z,88.1
2022-12-11T01:02:47.393Z,84.1
2022-12-11T01:04:04.498Z,84.9
2022-12-11T01:05:21.604Z,87.8
2022-12-11T01:06:38.709Z,90.4
2022-12-11T01:07:55.814Z,86.4
2022-12-11T01:09:12.920Z,87.7
2022-12-11T01:10:30.025Z,86.3
2022-12-11T01:11:46.152Z,85.8
2022-12-11T01:13:02.273Z,86.2
2022-12-11T01:14:18.400Z,89.5
2022-12-11T01:15:34.521Z,92
2022-12-11T01:16:51.627Z,91.2
2022-12-11T01:18:08.732Z,88.3
2022-12-11T01:19:25.838Z,90.1
2022-12-11T01:20:42.943Z,91.2
2022-12-11T01:22:00.048Z,91.9
2022-12-11T01:23:17.153Z,88.1
2022-12-11T01:24:34.259Z,90
2022-12-11T01:25:51.364Z,89.7
2022-12-11T01:27:08.469Z,89.1
2022-12-11T01:28:25.575Z,84.2
2022-12-11T01:29:42.680Z,85.4
2022-12-11T01:30:59.786Z,85.7
2022-12-11T01:32:15.905Z,86.9
2022-12-11T01:33:33.010Z,79.5
2022-12-11T01:34:50.116Z,77.2
2022-12-11T01:36:07.221Z,86.2
2022-12-11T01:37:24.328Z,81.3
2022-12-11T01:38:41.433Z,86.2
2022-12-11T01:39:58.538Z,86.3
2022-12-11T01:41:14.675Z,90.5
2022-12-11T01:42:30.796Z,81.5
2022-12-11T01:43:47.902Z,84.8
2022-12-11T01:45:05.007Z,80.2
2022-12-11T01:46:21.134Z,84.5
2022-12-11T01:47:37.255Z,82.1
2022-12-11T01:48:54.361Z,91
2022-12-11T01:50:11.466Z,82.9
2022-12-11T01:51:28.572Z,83.4
2022-12-11T01:52:45.677Z,86.7
2022-12-11T01:54:02.782Z,85.9
2022-12-11T01:56:36.993Z,85.8
2022-12-11T01:57:54.098Z,86.4
2022-12-11T01:59:11.204Z,78.4
2022-12-11T02:00:28.309Z,85.9
2022-12-11T02:01:45.415Z,86.7
2022-12-11T02:03:02.520Z,81.7
2022-12-11T02:04:18.641Z,81.2
2022-12-11T02:05:35.747Z,82.2
2022-12-11T02:06:52.852Z,80.5
2022-12-11T02:08:09.957Z,78.8
2022-12-11T02:09:27.063Z,74.9
2022-12-11T02:10:44.168Z,75.2
2022-12-11T02:12:01.271Z,73
2022-12-11T02:13:18.377Z,78.1
2022-12-11T02:14:34.504Z,71.4
2022-12-11T02:15:50.625Z,77.1
2022-12-11T02:17:06.752Z,78
2022-12-11T02:18:22.874Z,78.1
2022-12-11T02:19:39.979Z,80.6
2022-12-11T02:20:57.084Z,76.7
2022-12-11T02:22:14.190Z,77.8
2022-12-11T02:23:31.295Z,77
2022-12-11T02:24:48.400Z,72.5
2022-12-11T02:26:05.505Z,73.3
2022-12-11T02:27:22.611Z,73.5
2022-12-11T02:28:39.716Z,73.5
2022-12-11T02:29:56.823Z,72.7
2022-12-11T02:31:13.928Z,71.7
2022-12-11T02:32:31.033Z,69.8
2022-12-11T02:33:48.139Z,71.6
2022-12-11T02:35:04.260Z,75
2022-12-11T02:36:21.365Z,72.2
2022-12-11T02:37:38.471Z,74
2022-12-11T02:38:55.576Z,69.2
2022-12-11T02:40:12.682Z,67.9
2022-12-11T02:41:29.787Z,66.9
2022-12-11T02:42:46.892Z,70.1
2022-12-11T02:44:03.019Z,71.6
2022-12-11T02:45:19.140Z,74.7
2022-12-11T02:46:36.245Z,66.2
2022-12-11T02:47:53.351Z,69.7
2022-12-11T02:49:09.477Z,70
2022-12-11T02:50:25.599Z,72.7
2022-12-11T02:51:42.704Z,74
2022-12-11T02:52:59.809Z,63.7
2022-12-11T02:54:16.915Z,60.8
2022-12-11T02:55:34.020Z,61
2022-12-11T02:56:51.126Z,65.9
2022-12-11T02:59:25.336Z,63
2022-12-11T03:00:42.442Z,64.6
2022-12-11T03:01:59.547Z,64.5
2022-12-11T03:03:16.653Z,63.3
2022-12-11T03:04:33.759Z,64
2022-12-11T03:05:50.864Z,61.8
2022-12-11T03:07:06.986Z,58.5
2022-12-11T03:08:24.091Z,60.2
2022-12-11T03:09:41.197Z,57.1
2022-12-11T03:10:58.302Z,59.8
2022-12-11T03:12:15.408Z,56.6
2022-12-11T03:13:32.513Z,56.5
2022-12-11T03:14:49.618Z,58.2
2022-12-11T03:16:06.724Z,56
2022-12-11T03:17:23.829Z,58.4
2022-12-11T03:18:39.956Z,60.2
2022-12-11T03:19:56.077Z,58.2
2022-12-11T03:21:12.204Z,61.4
2022-12-11T03:22:28.325Z,62.3
2022-12-11T03:23:45.431Z,60.3
2022-12-11T03:25:02.536Z,59.8
2022-12-11T03:26:19.641Z,60.2
2022-12-11T03:27:36.747Z,62.7
2022-12-11T03:28:53.852Z,67
2022-12-11T03:30:10.957Z,62.3
2022-12-11T03:31:28.063Z,64.3
2022-12-11T03:32:45.168Z,63.2
2022-12-11T03:34:02.274Z,62.8
2022-12-11T03:35:19.379Z,62.1
2022-12-11T03:36:36.484Z,64.2
2022-12-11T03:37:53.589Z,65.5
2022-12-11T03:39:09.711Z,68.8
2022-12-11T03:40:26.816Z,69.2
2022-12-11T03:41:43.921Z,68.3
2022-12-11T03:43:01.027Z,66.7
2022-12-11T03:44:18.133Z,65.8
2022-12-11T03:45:35.238Z,69.1
2022-12-11T03:46:52.344Z,67.2
2022-12-11T03:48:08.470Z,63.8
2022-12-11T03:49:24.592Z,66.1
2022-12-11T03:50:40.718Z,68.4
2022-12-11T03:51:56.840Z,60.6
2022-12-11T03:53:13.943Z,58.9
2022-12-11T03:54:31.048Z,58.4
2022-12-11T03:55:48.154Z,60.1
2022-12-11T03:57:05.259Z,55.7
2022-12-11T03:58:22.364Z,56.4
2022-12-11T03:59:39.470Z,57.1
2022-12-11T04:00:56.575Z,56.4
2022-12-11T04:02:13.680Z,55.4
2022-12-11T04:03:30.786Z,59.1
2022-12-11T04:04:47.891Z,58.6
2022-12-11T04:06:04.996Z,56.2
2022-12-11T04:07:22.102Z,60
2022-12-11T04:08:38.223Z,60.8
2022-12-11T04:09:55.328Z,59.7
2022-12-11T04:11:12.434Z,55.3
2022-12-11T04:12:29.539Z,63.5
2022-12-11T04:13:46.644Z,60.9
2022-12-11T04:15:03.750Z,59.7
2022-12-11T04:16:20.855Z,57.6
2022-12-11T04:17:37.960Z,59.5
2022-12-11T04:18:55.065Z,62.6
2022-12-11T04:20:12.171Z,57
2022-12-11T04:21:28.297Z,59.3
2022-12-11T04:22:44.419Z,56.8
2022-12-11T04:24:01.524Z,58
2022-12-11T04:25:17.651Z,55.5
2022-12-11T04:26:33.772Z,56
2022-12-11T04:27:50.877Z,58
2022-12-11T04:29:07.983Z,59.8
2022-12-11T04:30:25.088Z,61.8
2022-12-11T04:31:42.193Z,59
2022-12-11T04:32:59.298Z,61
2022-12-11T04:34:16.404Z,60
2022-12-11T04:35:33.509Z,63.7
2022-12-11T04:36:50.615Z,63.1
2022-12-11T04:38:07.720Z,65.1
2022-12-11T04:39:24.825Z,63.9
2022-12-11T04:40:41.930Z,65
2022-12-11T04:41:59.036Z,63.6
2022-12-11T04:43:15.157Z,60.6
2022-12-11T04:44:32.262Z,64.9
2022-12-11T04:45:49.368Z,63.6
2022-12-11T04:47:06.473Z,65.1
2022-12-11T04:48:23.578Z,58.9
2022-12-11T04:49:40.684Z,62.7
2022-12-11T04:50:57.789Z,63.8
2022-12-11T04:52:13.915Z,61.9
2022-12-11T04:53:30.037Z,59.3
2022-12-11T04:54:47.142Z,63.6
2022-12-11T04:56:04.248Z,64.6
2022-12-11T04:57:21.353Z,63
2022-12-11T04:58:37.480Z,68
2022-12-11T04:59:53.601Z,61.7
2022-12-11T05:01:10.706Z,59.7
2022-12-11T05:02:27.812Z,65.6
2022-12-11T05:03:44.917Z,65.1
2022-12-11T05:05:02.023Z,63.7
2022-12-11T05:06:19.128Z,63
2022-12-11T05:07:36.233Z,65.8
2022-12-11T05:08:53.339Z,69.1
2022-12-11T05:10:10.444Z,64.8
2022-12-11T05:11:27.549Z,67.4
2022-12-11T05:12:44.654Z,66.7
2022-12-11T05:14:01.760Z,65.9
2022-12-11T05:15:18.865Z,64.2
2022-12-11T05:16:34.987Z,61.7
2022-12-11T05:17:52.092Z,64.8
2022-12-11T05:19:09.198Z,69.1
2022-12-11T05:20:26.303Z,65.8
2022-12-11T05:21:43.409Z,73.2
2022-12-11T05:23:00.514Z,67
2022-12-11T05:24:17.620Z,65.3
2022-12-11T05:25:33.747Z,64.3
2022-12-11T05:26:49.868Z,68.8
2022-12-11T05:28:06.974Z,67.3
2022-12-11T05:29:23.101Z,63.2
2022-12-11T05:30:39.222Z,68.5
2022-12-11T05:31:56.328Z,69.1
2022-12-11T05:33:13.433Z,65.6
2022-12-11T05:34:30.538Z,71
2022-12-11T05:35:47.644Z,69.4
2022-12-11T05:37:04.749Z,69.7
2022-12-11T05:38:21.854Z,71.4
2022-12-11T05:39:38.960Z,71
2022-12-11T05:40:56.065Z,66.5
2022-12-11T05:42:13.171Z,71.5
2022-12-11T05:43:30.276Z,71.3
2022-12-11T05:44:47.381Z,70.8
2022-12-11T05:46:04.487Z,69.6
2022-12-11T05:47:20.608Z,70.8
2022-12-11T05:48:37.714Z,68.6
2022-12-11T05:49:54.819Z,76.6
2022-12-11T05:51:11.925Z,72.8
2022-12-11T05:52:29.031Z,72.8
2022-12-11T05:53:46.137Z,70
2022-12-11T05:55:03.242Z,71.8
2022-12-11T05:56:19.368Z,76.4
2022-12-11T05:57:35.490Z,70.4
2022-12-11T05:58:51.611Z,70.5
2022-12-11T06:00:08.717Z,76
2022-12-11T06:01:24.843Z,70.5
2022-12-11T06:02:40.965Z,71.6
2022-12-11T06:03:58.070Z,76.1
2022-12-11T06:05:15.175Z,74.6
2022-12-11T06:06:32.281Z,85.4
2022-12-11T06:07:49.386Z,76.1
2022-12-11T06:09:06.492Z,80.1
2022-12-11T06:10:23.597Z,80.5
2022-12-11T06:11:40.703Z,82.8
2022-12-11T06:12:57.808Z,76.5
2022-12-11T06:14:14.914Z,74.4
2022-12-11T06:15:32.019Z,73.8
2022-12-11T06:16:49.125Z,72.8
2022-12-11T06:18:06.230Z,73.4
2022-12-11T06:19:22.352Z,75.9
2022-12-11T06:20:39.458Z,72.7
2022-12-11T06:21:56.563Z,72.9
2022-12-11T06:23:13.668Z,71.9
2022-12-11T06:24:30.774Z,72.9
2022-12-11T06:25:47.879Z,70.4
2022-12-11T06:27:04.985Z,71.4
2022-12-11T06:28:21.112Z,75.4
2022-12-11T06:29:37.233Z,71.7
2022-12-11T06:30:53.360Z,70.1
2022-12-11T06:32:09.482Z,73.4
2022-12-11T06:33:26.587Z,67.5
2022-12-11T06:34:43.693Z,65.3
2022-12-11T06:36:00.799Z,62.8
2022-12-11T06:37:17.904Z,68.1
2022-12-11T06:38:35.010Z,65.3
2022-12-11T06:39:52.115Z,70.6
2022-12-11T06:41:09.219Z,74.4
2022-12-11T06:42:26.324Z,68.6
2022-12-11T06:43:43.429Z,69.5
2022-12-11T06:45:00.535Z,61.8
2022-12-11T06:46:17.641Z,61.6
2022-12-11T06:47:34.746Z,63.2
2022-12-11T06:48:50.868Z,69
2022-12-11T06:50:07.973Z,64.3
2022-12-11T06:51:25.079Z,65.9
2022-12-11T06:52:42.184Z,61.1
2022-12-11T06:53:59.289Z,59.5
2022-12-11T06:55:16.395Z,59.4
2022-12-11T06:56:33.500Z,63.9
2022-12-11T06:57:49.627Z,56.8
2022-12-11T06:59:05.749Z,58.5
2022-12-11T07:00:22.854Z,61
2022-12-11T07:01:39.960Z,60.7
2022-12-11T07:02:56.087Z,63.3
2022-12-11T07:04:12.208Z,68.8
2022-12-11T07:05:29.313Z,64.5
2022-12-11T07:06:46.419Z,67.2
2022-12-11T07:08:03.524Z,69.7
2022-12-11T07:09:20.629Z,69.1
2022-12-11T07:10:37.735Z,66.9
2022-12-11T07:11:54.840Z,67.4
2022-12-11T07:13:11.946Z,65.6
2022-12-11T07:14:29.051Z,58.6
2022-12-11T07:15:46.156Z,57
2022-12-11T07:17:03.262Z,54.4
2022-12-11T07:18:20.368Z,54.8
2022-12-11T07:19:37.473Z,47.6
2022-12-11T07:20:53.595Z,46.4
2022-12-11T07:22:10.700Z,48.4
2022-12-11T07:23:27.806Z,48.2
2022-12-11T07:24:44.912Z,49.1
2022-12-11T07:26:02.017Z,50.1
2022-12-11T07:27:19.123Z,51.6
2022-12-11T07:28:36.228Z,52.1
2022-12-11T07:29:52.355Z,47.7
2022-12-11T07:31:08.476Z,43.7
2022-12-11T07:32:24.603Z,47.8
2022-12-11T07:33:40.725Z,51.4
2022-12-11T07:34:57.830Z,50.5
2022-12-11T07:36:14.935Z,50.8
2022-12-11T07:37:32.041Z,54.9
2022-12-11T07:38:49.146Z,53.5
2022-12-11T07:40:06.252Z,56.1
2022-12-11T07:41:23.358Z,55
2022-12-11T07:42:40.461Z,54.7
2022-12-11T07:43:57.566Z,54.6
2022-12-11T07:45:14.672Z,51
2022-12-11T07:46:31.777Z,55.1
2022-12-11T07:47:48.883Z,49.8
2022-12-11T07:49:05.988Z,52.5
2022-12-11T07:50:22.110Z,47.8
2022-12-11T07:51:39.216Z,48.1
2022-12-11T07:52:56.321Z,51.5
2022-12-11T07:54:13.427Z,46.3
2022-12-11T07:55:30.532Z,46.6
2022-12-11T07:56:47.638Z,47.6
2022-12-11T07:58:04.743Z,44.5
2022-12-11T07:59:20.870Z,47.9
2022-12-11T08:00:36.991Z,41.4
2022-12-11T08:01:54.097Z,39.5
2022-12-11T08:03:10.224Z,40.7
2022-12-11T08:04:26.345Z,39.7
2022-12-11T08:05:43.451Z,39.4
2022-12-11T08:07:00.557Z,34.2
2022-12-11T08:08:17.662Z,32.5
2022-12-11T08:09:34.768Z,30.7
2022-12-11T08:10:51.873Z,31.7
2022-12-11T08:12:08.979Z,33.4
2022-12-11T08:13:26.084Z,33.6
2022-12-11T08:14:43.189Z,34.7
2022-12-11T08:16:00.295Z,32.2
2022-12-11T08:17:17.401Z,29.8
2022-12-11T08:18:34.506Z,30.6
2022-12-11T08:19:51.611Z,30.8
2022-12-11T08:22:24.838Z,29.8
2022-12-11T08:23:41.944Z,30.4
2022-12-11T08:24:59.049Z,30.5
2022-12-11T08:26:16.155Z,28.9
2022-12-11T08:27:33.260Z,30.8
2022-12-11T08:28:50.366Z,29.7
2022-12-11T08:30:07.471Z,29.8
2022-12-11T08:31:23.598Z,30.5
2022-12-11T08:32:39.720Z,27.6
2022-12-11T08:33:56.825Z,29.9
2022-12-11T08:35:12.952Z,27.3
2022-12-11T08:36:29.074Z,28.3
2022-12-11T08:37:46.179Z,26.1
2022-12-11T08:39:03.284Z,29.1
2022-12-11T08:40:20.390Z,28.3
2022-12-11T08:41:37.495Z,27.5
2022-12-11T08:42:54.601Z,29.1
2022-12-11T08:44:11.707Z,29.4
2022-12-11T08:45:28.812Z,30.1
2022-12-11T08:46:45.917Z,28.5
2022-12-11T08:48:03.023Z,27
2022-12-11T08:49:20.128Z,26.1
2022-12-11T08:50:37.234Z,25.1
2022-12-11T08:51:54.339Z,26
2022-12-11T08:53:10.460Z,29
2022-12-11T08:54:27.566Z,26.4
2022-12-11T08:55:44.672Z,26.5
2022-12-11T08:57:01.777Z,27.3
2022-12-11T08:58:18.882Z,29.2
2022-12-11T08:59:35.989Z,27.1
2022-12-11T09:00:53.094Z,27.5
2022-12-11T09:02:10.199Z,27.7
2022-12-11T09:03:27.305Z,27.4
2022-12-11T09:04:43.432Z,28.1
2022-12-11T09:05:59.553Z,26.3
2022-12-11T09:07:15.680Z,29.1
2022-12-11T09:08:31.801Z,27.9
2022-12-11T09:09:48.907Z,27.4
2022-12-11T09:11:06.012Z,26
2022-12-11T09:12:23.118Z,23.7
2022-12-11T09:13:40.223Z,24.4
2022-12-11T09:14:57.329Z,24.6
2022-12-11T09:16:14.434Z,24.6
2022-12-11T09:17:31.539Z,26.8
2022-12-11T09:18:48.645Z,26
2022-12-11T09:20:05.751Z,24.7
2022-12-11T09:21:22.857Z,24.8
2022-12-11T09:22:39.962Z,26.4
2022-12-11T09:23:57.067Z,26.8
2022-12-11T09:25:13.189Z,24.9
2022-12-11T09:26:30.294Z,24.9
2022-12-11T09:27:47.399Z,25.7
2022-12-11T09:29:04.505Z,22.6
2022-12-11T09:30:21.610Z,25.3
2022-12-11T09:31:38.715Z,24
2022-12-11T09:32:55.821Z,25.1
2022-12-11T09:34:11.948Z,25
2022-12-11T09:35:28.069Z,27.8
2022-12-11T09:36:44.196Z,27.9
2022-12-11T09:38:00.317Z,28.2
2022-12-11T09:39:17.422Z,29.8
2022-12-11T09:40:34.527Z,28.4
2022-12-11T09:41:51.633Z,28.9
2022-12-11T09:43:08.738Z,26.1
2022-12-11T09:44:25.843Z,29.1
2022-12-11T09:45:42.948Z,25.7
2022-12-11T09:47:00.054Z,25.5
2022-12-11T09:48:17.159Z,27.2
2022-12-11T09:49:34.265Z,27.1
2022-12-11T09:50:51.370Z,26
2022-12-11T09:52:08.475Z,27.2
2022-12-11T09:53:25.580Z,25.9
2022-12-11T09:54:41.702Z,26.9
2022-12-11T09:55:58.807Z,26.6
2022-12-11T09:57:15.912Z,27.5
2022-12-11T09:58:33.018Z,25.4
2022-12-11T09:59:50.123Z,26.2
2022-12-11T10:01:07.228Z,25.6
2022-12-11T10:02:24.334Z,27.2
2022-12-11T10:03:40.460Z,26.7
2022-12-11T10:04:56.581Z,25.4
2022-12-11T10:06:12.708Z,25.1
2022-12-11T10:07:28.829Z,23.5
2022-12-11T10:08:45.935Z,25.9
2022-12-11T10:10:03.040Z,23.1
2022-12-11T10:11:20.145Z,23.2
2022-12-11T10:12:37.250Z,23.5
2022-12-11T10:13:54.355Z,23.5
2022-12-11T10:15:11.461Z,23.6
2022-12-11T10:16:27.582Z,22.5
2022-12-11T10:17:44.687Z,22.3
2022-12-11T10:19:01.792Z,23.2
2022-12-11T10:20:18.898Z,23.9
2022-12-11T10:21:36.004Z,23
2022-12-11T10:22:53.109Z,25.1
2022-12-11T10:24:10.214Z,24.8
2022-12-11T10:25:27.320Z,24
2022-12-11T10:26:44.425Z,25.2
2022-12-11T10:28:01.530Z,24.2
2022-12-11T10:29:18.635Z,25.3
2022-12-11T10:30:35.741Z,21.7
2022-12-11T10:31:52.846Z,22.4
2022-12-11T10:33:08.972Z,23.4
2022-12-11T10:34:25.093Z,22.4
2022-12-11T10:35:41.220Z,23.6
2022-12-11T10:36:57.341Z,23.3
2022-12-11T10:38:14.446Z,23.8
2022-12-11T10:39:31.551Z,24.9
2022-12-11T10:40:48.657Z,25.3
2022-12-11T10:42:05.762Z,23.1
2022-12-11T10:43:22.868Z,22.9
2022-12-11T10:44:39.972Z,23.6
2022-12-11T10:45:57.077Z,25
2022-12-11T10:47:14.182Z,23.2
2022-12-11T10:48:31.288Z,22.8
2022-12-11T10:49:48.393Z,23.5
2022-12-11T10:51:05.498Z,24.2
2022-12-11T10:52:22.604Z,23.7
2022-12-11T10:53:38.725Z,24.7
2022-12-11T10:54:55.830Z,23.8
2022-12-11T10:56:12.936Z,24.9
2022-12-11T10:57:30.041Z,24.2
2022-12-11T10:58:47.146Z,23.4
2022-12-11T11:00:04.251Z,24.7
2022-12-11T11:01:21.356Z,23
2022-12-11T11:02:37.483Z,23
2022-12-11T11:03:53.604Z,23.2
2022-12-11T11:05:10.709Z,24.3
2022-12-11T11:06:27.815Z,22.8
2022-12-11T11:07:44.920Z,22.9
2022-12-11T11:09:01.046Z,24.3
2022-12-11T11:10:17.168Z,23.3
2022-12-11T11:11:34.273Z,23.8
2022-12-11T11:12:51.378Z,25.2
2022-12-11T11:14:08.483Z,23.3
2022-12-11T11:15:25.589Z,23.2
2022-12-11T11:16:42.694Z,21.8
2022-12-11T11:17:59.799Z,22.7
2022-12-11T11:19:16.904Z,23.1
2022-12-11T11:20:34.009Z,24.4
2022-12-11T11:21:51.114Z,22.6
2022-12-11T11:23:08.220Z,24.7
2022-12-11T11:24:25.325Z,24.3
2022-12-11T11:25:42.430Z,24.6
2022-12-11T11:26:58.551Z,24.3
2022-12-11T11:28:15.657Z,24.4
2022-12-11T11:29:32.762Z,24.4
2022-12-11T11:30:49.867Z,23.2
2022-12-11T11:32:06.972Z,23.9
2022-12-11T11:33:24.077Z,22.9
2022-12-11T11:34:41.182Z,23.6
2022-12-11T11:35:57.309Z,22
2022-12-11T11:37:13.430Z,23.2
2022-12-11T11:38:29.557Z,21.9
2022-12-11T11:39:45.678Z,24.5
2022-12-11T11:41:02.783Z,23.2
2022-12-11T11:42:19.888Z,24.3
2022-12-11T11:43:36.993Z,24.1
2022-12-11T11:44:54.098Z,22.1
2022-12-11T11:46:11.204Z,23.3
2022-12-11T11:47:28.309Z,25.5
2022-12-11T11:48:45.414Z,23.1
2022-12-11T11:50:02.519Z,24.8
2022-12-11T11:51:19.624Z,24.2
2022-12-11T11:52:36.730Z,22.9
2022-12-11T11:53:53.835Z,25.3
2022-12-11T11:55:10.941Z,23.7
2022-12-11T11:56:27.062Z,24.8
2022-12-11T11:57:44.167Z,24.8
2022-12-11T11:59:01.272Z,27.1
2022-12-11T12:00:18.377Z,25.3
2022-12-11T12:01:35.483Z,25.2
2022-12-11T12:02:52.588Z,24.4
2022-12-11T12:04:09.693Z,23.8
2022-12-11T12:05:25.819Z,24.3
2022-12-11T12:06:41.940Z,24.7
2022-12-11T12:07:59.046Z,26.5
2022-12-11T12:09:15.172Z,24.9
2022-12-11T12:10:31.293Z,23.6
2022-12-11T12:11:48.398Z,23.2
2022-12-11T12:13:05.504Z,25.2
2022-12-11T12:14:22.609Z,23.5
2022-12-11T12:15:39.714Z,22.8
2022-12-11T12:16:56.819Z,24.1
2022-12-11T12:18:13.924Z,22.5
2022-12-11T12:19:31.029Z,23.6
2022-12-11T12:20:48.134Z,23.4
2022-12-11T12:22:05.239Z,24.7
2022-12-11T12:23:22.344Z,23.7
2022-12-11T12:24:39.449Z,24.6
2022-12-11T12:25:56.554Z,24.9
2022-12-11T12:27:12.676Z,22.9
2022-12-11T12:28:29.781Z,25
2022-12-11T12:29:46.886Z,22.8
2022-12-11T12:31:03.991Z,24.8
2022-12-11T12:32:21.096Z,23.4
2022-12-11T12:33:38.201Z,26.5
2022-12-11T12:34:55.307Z,26.7
2022-12-11T12:36:11.433Z,23.2
2022-12-11T12:37:28.538Z,25
2022-12-11T12:38:44.660Z,27.2
2022-12-11T12:40:00.786Z,28.4
2022-12-11T12:41:16.907Z,26.6
2022-12-11T12:42:34.012Z,22.8
2022-12-11T12:43:51.117Z,25.5
2022-12-11T12:45:08.223Z,25.1
2022-12-11T12:46:25.328Z,24.9
2022-12-11T12:47:42.433Z,26.3
2022-12-11T12:48:59.538Z,25.5
2022-12-11T12:50:16.643Z,23
2022-12-11T12:51:33.748Z,24
2022-12-11T12:52:50.853Z,22.8
2022-12-11T12:54:07.959Z,24.2
2022-12-11T12:55:25.064Z,22.1
2022-12-11T12:56:42.169Z,22.8
2022-12-11T12:57:58.290Z,23
2022-12-11T12:59:15.395Z,23.7
2022-12-11T13:00:32.501Z,23.2
2022-12-11T13:01:49.606Z,23.7
2022-12-11T13:03:06.711Z,23
2022-12-11T13:04:23.817Z,22.7
2022-12-11T13:05:40.922Z,23.9
2022-12-11T13:06:57.048Z,23.9
2022-12-11T13:08:13.167Z,25.4
2022-12-11T13:09:30.273Z,22.8
2022-12-11T13:10:46.399Z,24.7
2022-12-11T13:12:02.520Z,25.2
2022-12-11T13:13:19.625Z,25.1
2022-12-11T13:14:36.730Z,25.4
2022-12-11T13:15:53.835Z,23.8
2022-12-11T13:17:10.941Z,24
2022-12-11T13:18:28.046Z,24.5
2022-12-11T13:19:45.151Z,25.3
2022-12-11T13:21:02.256Z,26.2
2022-12-11T13:22:19.361Z,24.9
2022-12-11T13:23:36.466Z,25.3
2022-12-11T13:24:53.571Z,26.1
2022-12-11T13:26:10.677Z,25.2
2022-12-11T13:27:27.782Z,24.9
2022-12-11T13:28:43.903Z,25.3
2022-12-11T13:30:01.008Z,26.7
2022-12-11T13:31:18.111Z,24.8
2022-12-11T13:32:35.216Z,28.3
2022-12-11T13:33:52.321Z,24.9
2022-12-11T13:35:09.427Z,26.5
2022-12-11T13:36:26.532Z,27.9
2022-12-11T13:37:42.658Z,26.1
2022-12-11T13:38:58.779Z,25.4
2022-12-11T13:40:15.884Z,25.9
2022-12-11T13:41:32.990Z,25.1
2022-12-11T13:42:49.116Z,26.4
2022-12-11T13:44:05.238Z,26.8
2022-12-11T13:45:22.343Z,23.6
2022-12-11T13:46:39.448Z,23.7
2022-12-11T13:47:56.553Z,23.9
2022-12-11T13:49:13.658Z,23.5
2022-12-11T13:50:30.764Z,23.8
2022-12-11T13:51:47.869Z,23.9
2022-12-11T13:53:04.974Z,25.9
2022-12-11T13:54:22.080Z,23.3
2022-12-11T13:55:39.185Z,26.5
2022-12-11T13:56:56.290Z,25.2
2022-12-11T13:58:13.395Z,23.6
2022-12-11T13:59:30.501Z,24.5
2022-12-11T14:00:46.622Z,26.3
2022-12-11T14:02:03.727Z,26.7
2022-12-11T14:03:20.832Z,24.4
2022-12-11T14:04:37.938Z,25.9
2022-12-11T14:05:55.043Z,26.8
2022-12-11T14:07:12.148Z,25.7
2022-12-11T14:08:29.254Z,25.4
2022-12-11T14:09:45.380Z,24.9
2022-12-11T14:11:01.501Z,24.6
2022-12-11T14:12:17.628Z,28.4
2022-12-11T14:13:33.749Z,27.5
2022-12-11T14:14:50.854Z,27.2
2022-12-11T14:16:07.960Z,26.5
2022-12-11T14:17:25.065Z,29
2022-12-11T14:18:42.170Z,28.9
2022-12-11T14:19:59.275Z,30
2022-12-11T14:21:16.381Z,30.4
2022-12-11T14:22:33.486Z,32.8
2022-12-11T14:23:50.591Z,33.3
2022-12-11T14:25:07.697Z,31.7
2022-12-11T14:26:24.802Z,31.6
2022-12-11T14:27:41.907Z,30.6
2022-12-11T14:28:59.012Z,32.2
2022-12-11T14:30:15.134Z,32.2
2022-12-11T14:31:32.239Z,32.8
2022-12-11T14:32:49.344Z,32.4
2022-12-11T14:34:05.466Z,32
2022-12-11T14:35:22.571Z,31.5
2022-12-11T14:36:39.676Z,33.5
2022-12-11T14:37:56.781Z,31.9
2022-12-11T14:39:12.908Z,30.3
2022-12-11T14:40:29.029Z,30.2
2022-12-11T14:41:46.134Z,32.5
2022-12-11T14:43:02.261Z,32.2
2022-12-11T14:44:18.382Z,34.4
2022-12-11T14:45:35.487Z,34.9
2022-12-11T14:46:52.592Z,31
2022-12-11T14:48:09.698Z,32.7
2022-12-11T14:49:26.803Z,34.3
2022-12-11T14:50:43.908Z,31.9
2022-12-11T14:52:01.013Z,33.8
2022-12-11T14:53:18.119Z,33.3
2022-12-11T14:54:35.224Z,32.5
2022-12-11T14:55:52.329Z,33.1
2022-12-11T14:57:09.434Z,32.5
2022-12-11T14:58:26.539Z,32.9
2022-12-11T14:59:43.645Z,35.1
2022-12-11T15:00:59.766Z,33.1
2022-12-11T15:02:16.871Z,35.6
2022-12-11T15:03:33.977Z,37.3
2022-12-11T15:04:51.082Z,34.1
2022-12-11T15:06:08.187Z,35.5
2022-12-11T15:07:25.292Z,34.7
2022-12-11T15:08:42.398Z,38.9
2022-12-11T15:09:58.524Z,35.9
2022-12-11T15:11:14.646Z,34.1
2022-12-11T15:12:31.751Z,35.7
2022-12-11T15:13:47.878Z,37.3
2022-12-11T15:15:03.999Z,37.3
2022-12-11T15:16:21.105Z,38.5
2022-12-11T15:17:38.210Z,37.8
2022-12-11T15:18:55.316Z,37.8
2022-12-11T15:20:12.421Z,36.8
2022-12-11T15:21:29.526Z,35.3
2022-12-11T15:22:46.632Z,37.7
2022-12-11T15:24:03.737Z,39.3
2022-12-11T15:25:20.842Z,39.6
2022-12-11T15:26:37.948Z,38.4
2022-12-11T15:27:55.053Z,37.7
2022-12-11T15:29:12.159Z,37.1
2022-12-11T15:30:29.264Z,37.1
2022-12-11T15:31:45.385Z,38
2022-12-11T15:33:02.491Z,37
2022-12-11T15:34:19.596Z,39.7
2022-12-11T15:35:36.701Z,36.1
2022-12-11T15:36:53.807Z,36.4
2022-12-11T15:38:10.912Z,35.8
2022-12-11T15:39:28.018Z,33.8
2022-12-11T15:40:44.144Z,37.1
2022-12-11T15:42:00.266Z,36.1
2022-12-11T15:43:17.371Z,36.5
2022-12-11T15:44:33.498Z,38.4
2022-12-11T15:45:49.619Z,37
2022-12-11T15:47:06.725Z,36.5
2022-12-11T15:48:23.830Z,35.8
2022-12-11T15:49:40.935Z,33.8
2022-12-11T15:50:58.041Z,34.7
2022-12-11T15:52:15.146Z,35.2
2022-12-11T15:53:32.252Z,35.1
2022-12-11T15:54:49.357Z,32.7
2022-12-11T15:56:06.462Z,33.6
2022-12-11T15:57:23.567Z,36
2022-12-11T15:58:40.673Z,35.1
2022-12-11T15:59:57.778Z,36.4
2022-12-11T16:01:14.884Z,35.4
2022-12-11T16:02:31.005Z,34
2022-12-11T16:03:48.110Z,33.8
2022-12-11T16:05:05.216Z,34.6
2022-12-11T16:06:22.321Z,36.5
2022-12-11T16:07:39.427Z,33.4
2022-12-11T16:08:56.532Z,35.4
2022-12-11T16:10:13.637Z,35.7
2022-12-11T16:11:29.764Z,34.2
2022-12-11T16:12:45.885Z,36.5
2022-12-11T16:14:02.991Z,34.7
2022-12-11T16:15:20.096Z,35
2022-12-11T16:16:36.223Z,37.6
2022-12-11T16:17:52.344Z,36.2
2022-12-11T16:19:09.449Z,36
2022-12-11T16:20:26.555Z,37.8
2022-12-11T16:21:43.661Z,37.2
2022-12-11T16:23:00.766Z,37.8
2022-12-11T16:24:17.871Z,37.6
2022-12-11T16:25:34.977Z,36.2
2022-12-11T16:26:52.082Z,37
2022-12-11T16:28:09.187Z,36.1
2022-12-11T16:29:26.293Z,37.7
2022-12-11T16:30:43.398Z,38.2
2022-12-11T16:32:00.504Z,39
2022-12-11T16:33:17.609Z,39.8
2022-12-11T16:34:33.730Z,37.9
2022-12-11T16:35:50.836Z,36.4
2022-12-11T16:37:07.941Z,38.1
2022-12-11T16:38:25.046Z,40.4
2022-12-11T16:39:42.151Z,38.2
2022-12-11T16:40:59.256Z,37.8
2022-12-11T16:42:16.362Z,38.4
2022-12-11T16:43:32.489Z,37.1
2022-12-11T16:44:48.610Z,38.2
2022-12-11T16:46:04.737Z,40.7
2022-12-11T16:47:20.858Z,35.6
2022-12-11T16:48:37.964Z,38.4
2022-12-11T16:49:55.069Z,39.5
2022-12-11T16:51:12.174Z,38.5
2022-12-11T16:52:29.280Z,39.3
2022-12-11T16:53:46.385Z,38.9
2022-12-11T16:55:03.490Z,38.6
2022-12-11T16:56:20.596Z,41.2
2022-12-11T16:57:37.701Z,39.6
2022-12-11T16:58:54.807Z,39.1
2022-12-11T17:00:11.912Z,41.2
2022-12-11T17:01:29.017Z,40.6
2022-12-11T17:02:46.123Z,40.1
2022-12-11T17:04:02.244Z,43
2022-12-11T17:05:19.350Z,41
2022-12-11T17:06:36.455Z,42.7
2022-12-11T17:07:53.560Z,42.4
2022-12-11T17:09:10.666Z,44
2022-12-11T17:10:27.771Z,42.7
2022-12-11T17:11:44.877Z,41.4
2022-12-11T17:13:01.004Z,41.2